createdAt,value
2019-03-28T00:00:08.948Z,19.2
2019-03-28T00:01:08.960Z,19.22
2019-03-28T00:02:08.962Z,19.18
2019-03-28T00:03:09.044Z,19.2
2019-03-28T00:04:08.689Z,19.18
2019-03-28T00:05:08.845Z,19.2
2019-03-28T00:06:08.904Z,19.17
2019-03-28T00:07:08.733Z,19.17
2019-03-28T00:08:08.799Z,19.17
2019-03-28T00:09:08.772Z,19.16
2019-03-28T00:10:08.801Z,19.15
2019-03-28T00:11:08.774Z,19.16
2019-03-28T00:12:08.806Z,19.17
2019-03-28T00:13:08.822Z,19.15
2019-03-28T00:14:09.401Z,19.16
2019-03-28T00:15:09.000Z,19.13
2019-03-28T00:16:08.872Z,19.14
2019-03-28T00:17:08.898Z,19.11
2019-03-28T00:18:08.921Z,19.12
2019-03-28T00:19:08.900Z,19.13
2019-03-28T00:20:08.933Z,19.12
2019-03-28T00:21:08.711Z,19.11
2019-03-28T00:22:08.818Z,19.11
2019-03-28T00:23:08.809Z,19.1
2019-03-28T00:24:08.757Z,19.09
2019-03-28T00:25:09.022Z,19.09
2019-03-28T00:26:08.860Z,19.09
2019-03-28T00:27:08.808Z,19.08
2019-03-28T00:28:08.935Z,19.08
2019-03-28T00:29:08.850Z,19.08
2019-03-28T00:30:08.974Z,19.09
2019-03-28T00:31:09.819Z,19.07
2019-03-28T00:32:08.874Z,19.07
2019-03-28T00:33:08.891Z,19.06
2019-03-28T00:34:08.921Z,19.03
2019-03-28T00:35:09.065Z,19.06
2019-03-28T00:36:09.043Z,19.02
2019-03-28T00:37:09.398Z,19.05
2019-03-28T00:38:08.839Z,19.05
2019-03-28T00:39:08.702Z,19.01
2019-03-28T00:40:08.690Z,19.05
2019-03-28T00:41:08.744Z,19.03
2019-03-28T00:42:08.755Z,19.01
2019-03-28T00:43:08.820Z,19.01
2019-03-28T00:44:08.851Z,19.01
2019-03-28T00:45:08.784Z,19
2019-03-28T00:46:08.771Z,19
2019-03-28T00:47:08.952Z,19.01
2019-03-28T00:48:08.827Z,18.99
2019-03-28T00:49:08.894Z,19.01
2019-03-28T00:50:08.879Z,19
2019-03-28T00:51:08.954Z,19
2019-03-28T00:52:08.876Z,18.99
2019-03-28T00:53:08.876Z,18.99
2019-03-28T00:54:08.946Z,18.96
2019-03-28T00:55:08.706Z,18.97
2019-03-28T00:56:08.761Z,18.96
2019-03-28T00:57:08.786Z,18.94
2019-03-28T00:58:09.416Z,18.95
2019-03-28T00:59:08.672Z,18.94
2019-03-28T01:00:08.857Z,18.96
2019-03-28T01:01:08.869Z,18.95
2019-03-28T01:02:08.819Z,18.93
2019-03-28T01:03:08.815Z,18.94
2019-03-28T01:04:08.839Z,18.95
2019-03-28T01:05:08.842Z,18.93
2019-03-28T01:06:08.870Z,18.93
2019-03-28T01:07:08.969Z,18.92
2019-03-28T01:08:08.969Z,18.92
2019-03-28T01:09:08.914Z,18.92
2019-03-28T01:10:09.038Z,18.89
2019-03-28T01:11:08.942Z,18.89
2019-03-28T01:12:08.958Z,18.89
2019-03-28T01:13:08.769Z,18.91
2019-03-28T01:14:08.670Z,18.91
2019-03-28T01:15:08.675Z,18.88
2019-03-28T01:16:08.708Z,18.87
2019-03-28T01:17:08.784Z,18.88
2019-03-28T01:18:08.804Z,18.88
2019-03-28T01:19:08.906Z,18.89
2019-03-28T01:20:08.778Z,18.88
2019-03-28T01:21:08.798Z,18.85
2019-03-28T01:22:08.977Z,18.85
2019-03-28T01:23:08.851Z,18.87
2019-03-28T01:24:08.806Z,18.86
2019-03-28T01:25:08.914Z,18.86
2019-03-28T01:26:08.607Z,18.86
2019-03-28T01:27:09.050Z,18.84
2019-03-28T01:28:08.920Z,18.87
2019-03-28T01:29:08.885Z,18.85
2019-03-28T01:30:09.029Z,18.84
2019-03-28T01:31:08.706Z,18.84
2019-03-28T01:32:08.709Z,18.84
2019-03-28T01:33:08.839Z,18.83
2019-03-28T01:34:08.821Z,18.83
2019-03-28T01:35:08.897Z,18.83
2019-03-28T01:36:08.905Z,18.82
2019-03-28T01:37:08.837Z,18.84
2019-03-28T01:38:08.899Z,18.82
2019-03-28T01:39:08.908Z,18.79
2019-03-28T01:40:08.935Z,18.81
2019-03-28T01:41:08.969Z,18.81
2019-03-28T01:42:08.912Z,18.8
2019-03-28T01:43:08.892Z,18.79
2019-03-28T01:44:08.978Z,18.78
2019-03-28T01:45:08.952Z,18.8
2019-03-28T01:46:08.920Z,18.8
2019-03-28T01:47:08.678Z,18.79
2019-03-28T01:48:08.768Z,18.8
2019-03-28T01:49:08.738Z,18.79
2019-03-28T01:50:08.759Z,18.79
2019-03-28T01:51:08.769Z,18.79
2019-03-28T01:52:08.733Z,18.78
2019-03-28T01:53:08.490Z,18.78
2019-03-28T01:54:08.801Z,18.77
2019-03-28T01:55:08.846Z,18.77
2019-03-28T01:56:08.980Z,18.77
2019-03-28T01:57:13.270Z,18.76
2019-03-28T01:58:08.869Z,18.77
2019-03-28T01:59:08.555Z,18.76
2019-03-28T02:00:08.842Z,18.73
2019-03-28T02:01:09.216Z,18.74
2019-03-28T02:02:09.112Z,18.72
2019-03-28T02:03:08.869Z,18.74
2019-03-28T02:04:08.910Z,18.76
2019-03-28T02:05:08.682Z,18.74
2019-03-28T02:06:09.474Z,18.72
2019-03-28T02:07:08.731Z,18.72
2019-03-28T02:08:08.801Z,18.72
2019-03-28T02:09:08.797Z,18.72
2019-03-28T02:10:09.009Z,18.7
2019-03-28T02:11:08.768Z,18.71
2019-03-28T02:12:08.896Z,18.71
2019-03-28T02:13:08.816Z,18.71
2019-03-28T02:14:08.850Z,18.7
2019-03-28T02:15:08.825Z,18.7
2019-03-28T02:16:08.927Z,18.71
2019-03-28T02:17:08.907Z,18.7
2019-03-28T02:18:08.867Z,18.71
2019-03-28T02:19:08.946Z,18.69
2019-03-28T02:20:08.896Z,18.69
2019-03-28T02:21:09.836Z,18.68
2019-03-28T02:22:08.997Z,18.68
2019-03-28T02:23:08.394Z,18.67
2019-03-28T02:24:08.373Z,18.67
2019-03-28T02:25:08.805Z,18.68
2019-03-28T02:26:09.428Z,18.68
2019-03-28T02:27:08.740Z,18.66
2019-03-28T02:28:08.698Z,18.66
2019-03-28T02:29:08.731Z,18.65
2019-03-28T02:30:08.769Z,18.65
2019-03-28T02:31:08.775Z,18.66
2019-03-28T02:32:08.832Z,18.66
2019-03-28T02:33:08.799Z,18.68
2019-03-28T02:34:09.032Z,18.65
2019-03-28T02:35:08.800Z,18.64
2019-03-28T02:36:08.858Z,18.65
2019-03-28T02:37:08.626Z,18.64
2019-03-28T02:38:08.884Z,18.66
2019-03-28T02:39:09.062Z,18.65
2019-03-28T02:40:08.785Z,18.64
2019-03-28T02:41:09.132Z,18.62
2019-03-28T02:42:08.764Z,18.62
2019-03-28T02:43:08.636Z,18.64
2019-03-28T02:44:08.994Z,18.63
2019-03-28T02:45:09.167Z,18.59
2019-03-28T02:46:08.744Z,18.63
2019-03-28T02:47:08.875Z,18.62
2019-03-28T02:48:08.794Z,18.62
2019-03-28T02:49:08.878Z,18.62
2019-03-28T02:50:08.958Z,18.62
2019-03-28T02:51:08.927Z,18.58
2019-03-28T02:52:08.936Z,18.59
2019-03-28T02:53:08.955Z,18.62
2019-03-28T02:54:08.906Z,18.57
2019-03-28T02:55:08.906Z,18.58
2019-03-28T02:56:08.958Z,18.57
2019-03-28T02:57:09.009Z,18.61
2019-03-28T02:58:09.010Z,18.58
2019-03-28T02:59:08.617Z,18.57
2019-03-28T03:00:08.759Z,18.58
2019-03-28T03:01:08.689Z,18.57
2019-03-28T03:02:08.837Z,18.57
2019-03-28T03:03:08.675Z,18.58
2019-03-28T03:04:08.881Z,18.57
2019-03-28T03:05:09.120Z,18.55
2019-03-28T03:06:08.784Z,18.57
2019-03-28T03:07:08.730Z,18.55
2019-03-28T03:08:08.778Z,18.54
2019-03-28T03:09:08.785Z,18.56
2019-03-28T03:10:08.901Z,18.54
2019-03-28T03:11:09.958Z,18.53
2019-03-28T03:12:08.875Z,18.55
2019-03-28T03:13:09.020Z,18.53
2019-03-28T03:14:08.884Z,18.53
2019-03-28T03:15:08.860Z,18.53
2019-03-28T03:16:08.718Z,18.54
2019-03-28T03:17:08.672Z,18.53
2019-03-28T03:18:08.761Z,18.52
2019-03-28T03:19:08.740Z,18.49
2019-03-28T03:20:08.719Z,18.51
2019-03-28T03:21:10.424Z,18.51
2019-03-28T03:22:08.888Z,18.5
2019-03-28T03:23:08.774Z,18.49
2019-03-28T03:24:08.843Z,18.49
2019-03-28T03:25:08.847Z,18.5
2019-03-28T03:26:08.839Z,18.51
2019-03-28T03:27:09.555Z,18.5
2019-03-28T03:28:08.846Z,18.51
2019-03-28T03:29:08.855Z,18.49
2019-03-28T03:30:09.172Z,18.5
2019-03-28T03:31:09.010Z,18.49
2019-03-28T03:32:08.932Z,18.49
2019-03-28T03:33:09.744Z,18.49
2019-03-28T03:34:08.738Z,18.5
2019-03-28T03:35:08.811Z,18.49
2019-03-28T03:36:08.661Z,18.47
2019-03-28T03:37:08.713Z,18.48
2019-03-28T03:38:08.723Z,18.47
2019-03-28T03:39:08.933Z,18.49
2019-03-28T03:40:08.737Z,18.46
2019-03-28T03:41:08.737Z,18.47
2019-03-28T03:42:08.936Z,18.46
2019-03-28T03:43:08.733Z,18.46
2019-03-28T03:44:08.779Z,18.46
2019-03-28T03:45:09.999Z,18.46
2019-03-28T03:46:08.778Z,18.46
2019-03-28T03:47:08.817Z,18.44
2019-03-28T03:48:09.028Z,18.46
2019-03-28T03:49:09.082Z,18.46
2019-03-28T03:50:09.982Z,18.46
2019-03-28T03:51:08.653Z,18.44
2019-03-28T03:52:08.618Z,18.43
2019-03-28T03:53:08.696Z,18.43
2019-03-28T03:54:08.726Z,18.42
2019-03-28T03:55:08.727Z,18.44
2019-03-28T03:56:08.880Z,18.43
2019-03-28T03:57:08.826Z,18.42
2019-03-28T03:58:19.364Z,18.44
2019-03-28T03:59:08.757Z,18.43
2019-03-28T04:00:08.783Z,18.43
2019-03-28T04:01:09.036Z,18.41
2019-03-28T04:02:08.948Z,18.43
2019-03-28T04:03:08.914Z,18.41
2019-03-28T04:04:08.836Z,18.4
2019-03-28T04:05:09.186Z,18.41
2019-03-28T04:06:08.937Z,18.41
2019-03-28T04:07:08.596Z,18.41
2019-03-28T04:08:08.624Z,18.4
2019-03-28T04:09:08.645Z,18.41
2019-03-28T04:10:09.686Z,18.39
2019-03-28T04:11:08.744Z,18.39
2019-03-28T04:12:08.423Z,18.4
2019-03-28T04:13:08.688Z,18.39
2019-03-28T04:14:08.757Z,18.38
2019-03-28T04:15:08.725Z,18.38
2019-03-28T04:16:08.786Z,18.38
2019-03-28T04:17:08.832Z,18.37
2019-03-28T04:18:08.804Z,18.39
2019-03-28T04:19:08.801Z,18.36
2019-03-28T04:20:08.865Z,18.37
2019-03-28T04:21:08.809Z,18.37
2019-03-28T04:22:10.358Z,18.36
2019-03-28T04:23:08.667Z,18.37
2019-03-28T04:24:08.758Z,18.37
2019-03-28T04:25:08.796Z,18.35
2019-03-28T04:26:08.684Z,18.35
2019-03-28T04:27:08.730Z,18.37
2019-03-28T04:28:08.781Z,18.37
2019-03-28T04:29:08.806Z,18.36
2019-03-28T04:30:08.789Z,18.35
2019-03-28T04:31:08.999Z,18.36
2019-03-28T04:32:08.764Z,18.35
2019-03-28T04:33:08.779Z,18.35
2019-03-28T04:34:10.162Z,18.34
2019-03-28T04:35:08.956Z,18.35
2019-03-28T04:36:08.878Z,18.34
2019-03-28T04:37:08.833Z,18.36
2019-03-28T04:38:08.879Z,18.37
2019-03-28T04:39:08.910Z,18.33
2019-03-28T04:40:09.192Z,18.33
2019-03-28T04:41:08.693Z,18.33
2019-03-28T04:42:08.614Z,18.36
2019-03-28T04:43:08.663Z,18.36
2019-03-28T04:44:08.708Z,18.35
2019-03-28T04:45:08.844Z,18.36
2019-03-28T04:46:08.732Z,18.38
2019-03-28T04:47:08.716Z,18.37
2019-03-28T04:48:08.659Z,18.37
2019-03-28T04:49:08.834Z,18.39
2019-03-28T04:50:08.763Z,18.38
2019-03-28T04:51:12.212Z,18.37
2019-03-28T04:52:08.771Z,18.4
2019-03-28T04:53:08.804Z,18.41
2019-03-28T04:54:10.204Z,18.42
2019-03-28T04:55:08.872Z,18.41
2019-03-28T04:56:08.936Z,18.43
2019-03-28T04:57:08.672Z,18.46
2019-03-28T04:58:08.643Z,18.48
2019-03-28T04:59:08.649Z,18.49
2019-03-28T05:00:08.711Z,18.51
2019-03-28T05:01:08.718Z,18.53
2019-03-28T05:02:08.720Z,18.57
2019-03-28T05:03:08.745Z,18.55
2019-03-28T05:04:08.750Z,18.56
2019-03-28T05:05:08.760Z,18.61
2019-03-28T05:06:08.817Z,18.62
2019-03-28T05:07:08.840Z,18.64
2019-03-28T05:08:08.782Z,18.65
2019-03-28T05:09:08.839Z,18.66
2019-03-28T05:10:08.883Z,18.66
2019-03-28T05:11:08.855Z,18.68
2019-03-28T05:12:08.850Z,18.71
2019-03-28T05:13:08.586Z,18.73
2019-03-28T05:14:08.651Z,18.74
2019-03-28T05:15:08.779Z,18.77
2019-03-28T05:16:08.694Z,18.79
2019-03-28T05:17:08.686Z,18.81
2019-03-28T05:18:08.665Z,18.82
2019-03-28T05:19:08.691Z,18.82
2019-03-28T05:20:08.455Z,18.85
2019-03-28T05:21:08.867Z,18.86
2019-03-28T05:22:08.822Z,18.88
2019-03-28T05:23:08.774Z,18.91
2019-03-28T05:24:08.519Z,18.91
2019-03-28T05:25:08.815Z,18.93
2019-03-28T05:26:08.932Z,18.94
2019-03-28T05:27:08.801Z,18.94
2019-03-28T05:28:08.822Z,18.99
2019-03-28T05:29:08.634Z,18.98
2019-03-28T05:30:08.647Z,19
2019-03-28T05:31:08.656Z,19.02
2019-03-28T05:32:08.661Z,19.05
2019-03-28T05:33:08.701Z,19.05
2019-03-28T05:34:08.809Z,19.06
2019-03-28T05:35:08.830Z,19.07
2019-03-28T05:36:08.769Z,19.09
2019-03-28T05:37:08.902Z,19.1
2019-03-28T05:38:08.769Z,19.09
2019-03-28T05:39:08.907Z,19.13
2019-03-28T05:40:08.804Z,19.15
2019-03-28T05:41:08.884Z,19.14
2019-03-28T05:42:08.857Z,19.17
2019-03-28T05:43:08.948Z,19.17
2019-03-28T05:44:08.899Z,19.21
2019-03-28T05:45:08.579Z,19.2
2019-03-28T05:46:08.590Z,19.2
2019-03-28T05:47:08.635Z,19.21
2019-03-28T05:48:08.584Z,19.23
2019-03-28T05:49:08.356Z,19.24
2019-03-28T05:50:08.667Z,19.23
2019-03-28T05:51:08.591Z,19.24
2019-03-28T05:52:12.051Z,19.28
2019-03-28T05:53:08.711Z,19.26
2019-03-28T05:54:08.701Z,19.29
2019-03-28T05:55:08.754Z,19.28
2019-03-28T05:56:08.734Z,19.28
2019-03-28T05:57:08.918Z,19.32
2019-03-28T05:58:09.942Z,19.3
2019-03-28T05:59:11.769Z,19.32
2019-03-28T06:00:08.823Z,19.3
2019-03-28T06:01:08.604Z,19.32
2019-03-28T06:02:08.662Z,19.33
2019-03-28T06:03:08.659Z,19.33
2019-03-28T06:04:08.674Z,19.33
2019-03-28T06:05:08.692Z,19.36
2019-03-28T06:06:08.695Z,19.36
2019-03-28T06:07:10.677Z,19.37
2019-03-28T06:08:08.704Z,19.37
2019-03-28T06:09:08.776Z,19.37
2019-03-28T06:10:08.804Z,19.37
2019-03-28T06:11:08.767Z,19.38
2019-03-28T06:12:08.799Z,19.39
2019-03-28T06:13:08.826Z,19.4
2019-03-28T06:14:08.835Z,19.4
2019-03-28T06:15:08.841Z,19.38
2019-03-28T06:16:08.823Z,19.39
2019-03-28T06:17:08.865Z,19.39
2019-03-28T06:18:08.531Z,19.41
2019-03-28T06:19:08.825Z,19.41
2019-03-28T06:20:08.767Z,19.4
2019-03-28T06:21:08.639Z,19.41
2019-03-28T06:22:08.660Z,19.42
2019-03-28T06:23:08.648Z,19.4
2019-03-28T06:24:08.698Z,19.4
2019-03-28T06:25:08.733Z,19.42
2019-03-28T06:26:08.820Z,19.41
2019-03-28T06:27:08.676Z,19.42
2019-03-28T06:28:08.734Z,19.43
2019-03-28T06:29:09.040Z,19.42
2019-03-28T06:30:08.801Z,19.43
2019-03-28T06:31:08.766Z,19.43
2019-03-28T06:32:08.960Z,19.44
2019-03-28T06:33:08.842Z,19.42
2019-03-28T06:34:08.718Z,19.42
2019-03-28T06:35:08.631Z,19.43
2019-03-28T06:36:08.786Z,19.45
2019-03-28T06:37:08.653Z,19.44
2019-03-28T06:38:08.656Z,19.43
2019-03-28T06:39:08.777Z,19.45
2019-03-28T06:40:08.814Z,19.42
2019-03-28T06:41:08.722Z,19.43
2019-03-28T06:42:08.738Z,19.43
2019-03-28T06:43:08.697Z,19.44
2019-03-28T06:44:08.749Z,19.44
2019-03-28T06:45:08.771Z,19.45
2019-03-28T06:46:08.906Z,19.43
2019-03-28T06:47:08.882Z,19.44
2019-03-28T06:48:08.821Z,19.43
2019-03-28T06:49:08.838Z,19.43
2019-03-28T06:50:09.648Z,19.44
2019-03-28T06:51:08.582Z,19.41
2019-03-28T06:52:08.581Z,19.44
2019-03-28T06:53:08.695Z,19.43
2019-03-28T06:54:08.622Z,19.46
2019-03-28T06:55:08.704Z,19.44
2019-03-28T06:56:08.625Z,19.44
2019-03-28T06:57:08.711Z,19.43
2019-03-28T06:58:08.812Z,19.45
2019-03-28T06:59:08.743Z,19.45
2019-03-28T07:00:08.666Z,19.43
2019-03-28T07:01:08.408Z,19.44
2019-03-28T07:02:08.807Z,19.44
2019-03-28T07:03:08.692Z,19.44
2019-03-28T07:04:08.770Z,19.43
2019-03-28T07:05:08.755Z,19.42
2019-03-28T07:06:08.760Z,19.43
2019-03-28T07:07:08.565Z,19.41
2019-03-28T07:08:08.576Z,19.42
2019-03-28T07:09:08.646Z,19.44
2019-03-28T07:10:08.648Z,19.41
2019-03-28T07:11:08.616Z,19.43
2019-03-28T07:12:08.663Z,19.42
2019-03-28T07:13:08.661Z,19.41
2019-03-28T07:14:08.662Z,19.41
2019-03-28T07:15:08.781Z,19.4
2019-03-28T07:16:08.686Z,19.42
2019-03-28T07:17:08.788Z,19.43
2019-03-28T07:18:08.726Z,19.43
2019-03-28T07:19:08.762Z,19.42
2019-03-28T07:20:09.713Z,19.41
2019-03-28T07:21:08.773Z,19.41
2019-03-28T07:22:08.785Z,19.44
2019-03-28T07:23:09.602Z,19.43
2019-03-28T07:24:08.923Z,19.42
2019-03-28T07:25:08.551Z,19.41
2019-03-28T07:26:08.580Z,19.42
2019-03-28T07:27:08.730Z,19.42
2019-03-28T07:28:09.712Z,19.42
2019-03-28T07:29:08.601Z,19.42
2019-03-28T07:30:08.605Z,19.42
2019-03-28T07:31:08.600Z,19.42
2019-03-28T07:32:08.664Z,19.41
2019-03-28T07:33:08.760Z,19.43
2019-03-28T07:34:08.737Z,19.42
2019-03-28T07:35:08.406Z,19.4
2019-03-28T07:36:09.068Z,19.4
2019-03-28T07:37:08.701Z,19.42
2019-03-28T07:38:08.743Z,19.42
2019-03-28T07:39:08.749Z,19.41
2019-03-28T07:40:08.892Z,19.41
2019-03-28T07:41:08.802Z,19.42
2019-03-28T07:42:08.778Z,19.43
2019-03-28T07:43:08.663Z,19.41
2019-03-28T07:44:08.580Z,19.42
2019-03-28T07:45:08.605Z,19.4
2019-03-28T07:46:08.728Z,19.42
2019-03-28T07:47:08.660Z,19.41
2019-03-28T07:48:08.667Z,19.4
2019-03-28T07:49:08.664Z,19.42
2019-03-28T07:50:08.680Z,19.42
2019-03-28T07:51:08.711Z,19.4
2019-03-28T07:52:08.680Z,19.41
2019-03-28T07:53:08.701Z,19.43
2019-03-28T07:54:08.735Z,19.41
2019-03-28T07:55:08.694Z,19.43
2019-03-28T07:56:08.762Z,19.43
2019-03-28T07:57:08.746Z,19.4
2019-03-28T07:58:09.575Z,19.42
2019-03-28T07:59:08.811Z,19.43
2019-03-28T08:00:08.818Z,19.42
2019-03-28T08:01:08.556Z,19.44
2019-03-28T08:02:08.556Z,19.43
2019-03-28T08:03:08.316Z,19.43
2019-03-28T08:04:08.584Z,19.43
2019-03-28T08:05:08.840Z,19.43
2019-03-28T08:06:08.668Z,19.43
2019-03-28T08:07:08.225Z,19.42
2019-03-28T08:08:08.315Z,19.42
2019-03-28T08:09:08.264Z,19.42
2019-03-28T08:10:08.335Z,19.44
2019-03-28T08:11:08.956Z,19.43
2019-03-28T08:12:23.795Z,19.44
2019-03-28T08:13:08.390Z,19.44
2019-03-28T08:14:08.386Z,19.44
2019-03-28T08:15:08.413Z,19.44
2019-03-28T08:16:08.375Z,19.43
2019-03-28T08:17:08.458Z,19.42
2019-03-28T08:18:08.312Z,19.44
2019-03-28T08:19:08.395Z,19.44
2019-03-28T08:20:08.297Z,19.46
2019-03-28T08:21:08.208Z,19.44
2019-03-28T08:22:08.257Z,19.43
2019-03-28T08:23:08.245Z,19.44
2019-03-28T08:24:08.267Z,19.45
2019-03-28T08:25:14.102Z,19.45
2019-03-28T08:26:08.286Z,19.45
2019-03-28T08:27:08.283Z,19.45
2019-03-28T08:28:08.536Z,19.45
2019-03-28T08:29:08.446Z,19.45
2019-03-28T08:30:19.823Z,19.46
2019-03-28T08:31:08.362Z,19.46
2019-03-28T08:32:09.390Z,19.44
2019-03-28T08:33:08.538Z,19.46
2019-03-28T08:34:08.413Z,19.47
2019-03-28T08:35:08.461Z,19.45
2019-03-28T08:36:08.248Z,19.47
2019-03-28T08:37:08.196Z,19.46
2019-03-28T08:38:10.761Z,19.46
2019-03-28T08:39:08.243Z,19.48
2019-03-28T08:40:08.223Z,19.48
2019-03-28T08:41:08.389Z,19.46
2019-03-28T08:42:08.554Z,19.47
2019-03-28T08:43:08.359Z,19.45
2019-03-28T08:44:08.321Z,19.46
2019-03-28T08:45:08.326Z,19.46
2019-03-28T08:46:09.101Z,19.48
2019-03-28T08:47:08.332Z,19.5
2019-03-28T08:48:08.322Z,19.48
2019-03-28T08:49:08.313Z,19.47
2019-03-28T08:50:08.345Z,19.47
2019-03-28T08:51:08.344Z,19.5
2019-03-28T08:52:12.185Z,19.51
2019-03-28T08:53:08.451Z,19.52
2019-03-28T08:54:08.298Z,19.51
2019-03-28T08:55:10.574Z,19.53
2019-03-28T08:56:08.211Z,19.52
2019-03-28T08:57:08.351Z,19.52
2019-03-28T08:58:08.245Z,19.51
2019-03-28T08:59:08.331Z,19.52
2019-03-28T09:00:08.331Z,19.54
2019-03-28T09:01:08.275Z,19.53
2019-03-28T09:02:08.279Z,19.52
2019-03-28T09:03:08.386Z,19.55
2019-03-28T09:04:08.309Z,19.56
2019-03-28T09:05:08.346Z,19.57
2019-03-28T09:06:08.344Z,19.58
2019-03-28T09:07:08.422Z,19.57
2019-03-28T09:08:08.451Z,19.59
2019-03-28T09:09:08.346Z,19.58
2019-03-28T09:10:08.451Z,19.59
2019-03-28T09:11:08.392Z,19.59
2019-03-28T09:12:08.558Z,19.61
2019-03-28T09:13:08.123Z,19.59
2019-03-28T09:14:08.132Z,19.6
2019-03-28T09:15:08.345Z,19.59
2019-03-28T09:16:08.171Z,19.61
2019-03-28T09:17:08.378Z,19.6
2019-03-28T09:18:08.201Z,19.61
2019-03-28T09:19:08.214Z,19.62
2019-03-28T09:20:08.262Z,19.59
2019-03-28T09:21:08.246Z,19.62
2019-03-28T09:22:08.234Z,19.61
2019-03-28T09:23:08.293Z,19.62
2019-03-28T09:24:08.467Z,19.61
2019-03-28T09:25:08.435Z,19.61
2019-03-28T09:26:08.334Z,19.6
2019-03-28T09:27:08.399Z,19.59
2019-03-28T09:28:08.387Z,19.6
2019-03-28T09:29:08.507Z,19.59
2019-03-28T09:30:08.532Z,19.59
2019-03-28T09:31:20.663Z,19.59
2019-03-28T09:32:08.173Z,19.6
2019-03-28T09:33:09.033Z,19.59
2019-03-28T09:34:08.198Z,19.6
2019-03-28T09:35:08.302Z,19.6
2019-03-28T09:36:08.270Z,19.59
2019-03-28T09:37:08.250Z,19.61
2019-03-28T09:38:08.348Z,19.6
2019-03-28T09:39:08.259Z,19.62
2019-03-28T09:40:08.293Z,19.62
2019-03-28T09:41:08.336Z,19.6
2019-03-28T09:42:08.383Z,19.6
2019-03-28T09:43:08.327Z,19.62
2019-03-28T09:44:08.333Z,19.62
2019-03-28T09:45:08.347Z,19.62
2019-03-28T09:46:08.457Z,19.62
2019-03-28T09:47:08.500Z,19.59
2019-03-28T09:48:12.322Z,19.61
2019-03-28T09:49:08.140Z,19.61
2019-03-28T09:50:08.218Z,19.6
2019-03-28T09:51:08.124Z,19.62
2019-03-28T09:52:08.151Z,19.62
2019-03-28T09:53:08.167Z,19.62
2019-03-28T09:54:08.253Z,19.62
2019-03-28T09:55:08.201Z,19.62
2019-03-28T09:56:08.221Z,19.61
2019-03-28T09:57:08.415Z,19.61
2019-03-28T09:58:08.233Z,19.65
2019-03-28T09:59:08.233Z,19.61
2019-03-28T10:00:08.253Z,19.62
2019-03-28T10:01:08.322Z,19.61
2019-03-28T10:02:08.311Z,19.62
2019-03-28T10:03:08.369Z,19.6
2019-03-28T10:04:08.317Z,19.63
2019-03-28T10:05:08.328Z,19.62
2019-03-28T10:06:08.342Z,19.63
2019-03-28T10:07:08.448Z,19.62
2019-03-28T10:08:08.289Z,19.62
2019-03-28T10:09:08.464Z,19.62
2019-03-28T10:10:09.756Z,19.63
2019-03-28T10:11:08.184Z,19.62
2019-03-28T10:12:08.182Z,19.62
2019-03-28T10:13:08.284Z,19.61
2019-03-28T10:14:08.559Z,19.65
2019-03-28T10:15:08.237Z,19.62
2019-03-28T10:16:09.937Z,19.65
2019-03-28T10:17:08.265Z,19.62
2019-03-28T10:18:08.283Z,19.63
2019-03-28T10:19:08.341Z,19.63
2019-03-28T10:20:09.260Z,19.66
2019-03-28T10:21:08.326Z,19.67
2019-03-28T10:22:08.385Z,19.67
2019-03-28T10:23:08.343Z,19.68
2019-03-28T10:24:08.411Z,19.67
2019-03-28T10:25:08.381Z,19.69
2019-03-28T10:26:08.441Z,19.71
2019-03-28T10:27:08.123Z,19.72
2019-03-28T10:28:08.130Z,19.72
2019-03-28T10:29:08.195Z,19.71
2019-03-28T10:30:08.211Z,19.73
2019-03-28T10:31:17.213Z,19.74
2019-03-28T10:32:08.174Z,19.74
2019-03-28T10:33:08.197Z,19.77
2019-03-28T10:34:08.187Z,19.77
2019-03-28T10:35:08.222Z,19.79
2019-03-28T10:36:08.223Z,19.81
2019-03-28T10:37:08.494Z,19.82
2019-03-28T10:38:08.276Z,19.82
2019-03-28T10:39:08.379Z,19.83
2019-03-28T10:40:08.290Z,19.83
2019-03-28T10:41:08.279Z,19.85
2019-03-28T10:42:08.320Z,19.86
2019-03-28T10:43:08.322Z,19.85
2019-03-28T10:44:08.467Z,19.87
2019-03-28T10:45:08.419Z,19.88
2019-03-28T10:46:08.256Z,19.89
2019-03-28T10:47:08.233Z,19.89
2019-03-28T10:48:08.219Z,19.89
2019-03-28T10:49:08.232Z,19.9
2019-03-28T10:50:08.284Z,19.91
2019-03-28T10:51:08.238Z,19.91
2019-03-28T10:52:12.294Z,19.92
2019-03-28T10:53:08.354Z,19.94
2019-03-28T10:54:21.129Z,19.94
2019-03-28T10:55:08.269Z,19.96
2019-03-28T10:56:24.558Z,19.96
2019-03-28T10:57:32.510Z,19.95
2019-03-28T10:58:19.932Z,19.98
2019-03-28T10:59:23.896Z,19.96
2019-03-28T11:00:08.402Z,19.99
2019-03-28T11:01:08.446Z,19.98
2019-03-28T11:02:08.366Z,19.99
2019-03-28T11:03:08.382Z,19.99
2019-03-28T11:04:08.095Z,19.99
2019-03-28T11:05:08.128Z,20
2019-03-28T11:06:08.282Z,20.01
2019-03-28T11:07:08.128Z,20.01
2019-03-28T11:08:08.188Z,20.02
2019-03-28T11:09:08.920Z,20.03
2019-03-28T11:10:08.159Z,20.02
2019-03-28T11:11:08.200Z,20.02
2019-03-28T11:12:08.193Z,20.03
2019-03-28T11:13:10.243Z,20.02
2019-03-28T11:14:08.242Z,20.04
2019-03-28T11:15:08.339Z,20.04
2019-03-28T11:16:08.385Z,20.02
2019-03-28T11:17:08.310Z,20.04
2019-03-28T11:18:08.187Z,20.03
2019-03-28T11:19:08.349Z,20.03
2019-03-28T11:20:09.920Z,20.04
2019-03-28T11:21:08.373Z,20.04
2019-03-28T11:22:08.324Z,20.03
2019-03-28T11:23:08.132Z,20.03
2019-03-28T11:24:08.335Z,20.05
2019-03-28T11:25:08.333Z,20.06
2019-03-28T11:26:08.161Z,20.05
2019-03-28T11:27:08.273Z,20.04
2019-03-28T11:28:08.460Z,20.07
2019-03-28T11:29:08.568Z,20.06
2019-03-28T11:30:08.227Z,20.07
2019-03-28T11:31:08.233Z,20.06
2019-03-28T11:32:08.303Z,20.06
2019-03-28T11:33:08.309Z,20.07
2019-03-28T11:34:08.398Z,20.05
2019-03-28T11:35:08.711Z,20.06
2019-03-28T11:36:08.289Z,20.07
2019-03-28T11:37:28.515Z,20.06
2019-03-28T11:38:10.281Z,20.07
2019-03-28T11:39:08.389Z,20.05
2019-03-28T11:40:09.826Z,20.06
2019-03-28T11:41:09.309Z,20.04
2019-03-28T11:42:08.073Z,20.05
2019-03-28T11:43:08.234Z,20.06
2019-03-28T11:44:08.129Z,20.04
2019-03-28T11:45:10.165Z,20.05
2019-03-28T11:46:08.156Z,20.05
2019-03-28T11:47:08.148Z,20.04
2019-03-28T11:48:08.190Z,20.04
2019-03-28T11:49:08.250Z,20.02
2019-03-28T11:50:08.334Z,20.03
2019-03-28T11:51:08.202Z,20.03
2019-03-28T11:52:08.272Z,20.03
2019-03-28T11:53:08.242Z,20.02
2019-03-28T11:54:08.295Z,20.01
2019-03-28T11:55:08.281Z,20.02
2019-03-28T11:56:08.333Z,20.01
2019-03-28T11:57:08.277Z,20
2019-03-28T11:58:08.341Z,20
2019-03-28T11:59:08.217Z,19.99
2019-03-28T12:00:08.278Z,20
2019-03-28T12:01:08.139Z,19.99
2019-03-28T12:02:20.915Z,19.98
2019-03-28T12:03:08.172Z,19.98
2019-03-28T12:04:08.772Z,19.96
2019-03-28T12:05:08.210Z,19.97
2019-03-28T12:06:08.332Z,19.94
2019-03-28T12:07:08.362Z,19.96
2019-03-28T12:08:08.215Z,19.94
2019-03-28T12:09:08.288Z,19.95
2019-03-28T12:10:08.246Z,19.97
2019-03-28T12:11:08.255Z,19.92
2019-03-28T12:12:08.261Z,19.94
2019-03-28T12:13:08.290Z,19.91
2019-03-28T12:14:08.327Z,19.91
2019-03-28T12:15:08.394Z,19.92
2019-03-28T12:16:08.320Z,19.9
2019-03-28T12:17:08.402Z,19.9
2019-03-28T12:18:08.312Z,19.94
2019-03-28T12:19:08.065Z,19.94
2019-03-28T12:20:08.083Z,19.89
2019-03-28T12:21:08.087Z,19.89
2019-03-28T12:22:09.242Z,19.89
2019-03-28T12:23:08.231Z,19.9
2019-03-28T12:24:08.229Z,19.88
2019-03-28T12:25:08.190Z,19.9
2019-03-28T12:26:08.163Z,19.89
2019-03-28T12:27:08.192Z,19.89
2019-03-28T12:28:08.191Z,19.89
2019-03-28T12:29:08.201Z,19.88
2019-03-28T12:30:08.311Z,19.88
2019-03-28T12:31:08.448Z,19.86
2019-03-28T12:32:14.836Z,19.87
2019-03-28T12:33:08.416Z,19.85
2019-03-28T12:34:08.335Z,19.87
2019-03-28T12:35:08.485Z,19.88
2019-03-28T12:36:08.129Z,19.86
2019-03-28T12:37:08.099Z,19.86
2019-03-28T12:38:08.201Z,19.87
2019-03-28T12:39:08.207Z,19.85
2019-03-28T12:40:08.200Z,19.84
2019-03-28T12:41:08.274Z,19.85
2019-03-28T12:42:08.198Z,19.84
2019-03-28T12:43:08.260Z,19.85
2019-03-28T12:44:08.202Z,19.84
2019-03-28T12:45:08.311Z,19.85
2019-03-28T12:46:08.267Z,19.85
2019-03-28T12:47:08.242Z,19.85
2019-03-28T12:48:08.323Z,19.83
2019-03-28T12:49:08.313Z,19.84
2019-03-28T12:50:08.022Z,19.84
2019-03-28T12:51:08.298Z,19.83
2019-03-28T12:52:08.411Z,19.84
2019-03-28T12:53:08.368Z,19.82
2019-03-28T12:54:08.003Z,19.84
2019-03-28T12:55:08.114Z,19.85